sensor_id;sensor_type;location;lat;lon;timestamp;pressure;altitude;pressure_sealevel;temperature;humidity
3668;BME280;24099;47.102;15.440;2023-01-09T00:01:09;96206.44;;;2.00;100.00
3668;BME280;24099;47.102;15.440;2023-01-09T00:03:37;96210.84;;;1.99;100.00
3668;BME280;24099;47.102;15.440;2023-01-09T00:06:05;96205.25;;;2.12;100.00
3668;BME280;24099;47.102;15.440;2023-01-09T00:08:34;96205.13;;;2.22;100.00
3668;BME280;24099;47.102;15.440;2023-01-09T00:11:02;96203.63;;;2.11;100.00
3668;BME280;24099;47.102;15.440;2023-01-09T00:13:30;96202.25;;;1.99;100.00
3668;BME280;24099;47.102;15.440;2023-01-09T00:15:58;96196.56;;;1.95;100.00
3668;BME280;24099;47.102;15.440;2023-01-09T00:18:26;96199.31;;;2.02;100.00
3668;BME280;24099;47.102;15.440;2023-01-09T00:20:53;96199.31;;;2.02;100.00
3668;BME280;24099;47.102;15.440;2023-01-09T00:23:21;96195.66;;;1.87;100.00
3668;BME280;24099;47.102;15.440;2023-01-09T00:25:52;96180.19;;;2.03;100.00
3668;BME280;24099;47.102;15.440;2023-01-09T00:28:27;96178.09;;;1.98;100.00
3668;BME280;24099;47.102;15.440;2023-01-09T00:30:55;96174.16;;;1.94;100.00
3668;BME280;24099;47.102;15.440;2023-01-09T00:33:26;96170.63;;;2.03;100.00
3668;BME280;24099;47.102;15.440;2023-01-09T00:35:55;96175.84;;;2.37;100.00
3668;BME280;24099;47.102;15.440;2023-01-09T00:38:23;96171.69;;;2.53;100.00
3668;BME280;24099;47.102;15.440;2023-01-09T00:40:53;96170.41;;;2.23;100.00
3668;BME280;24099;47.102;15.440;2023-01-09T00:43:25;96157.59;;;2.21;100.00
3668;BME280;24099;47.102;15.440;2023-01-09T00:45:54;96157.28;;;2.24;100.00
3668;BME280;24099;47.102;15.440;2023-01-09T00:48:24;96158.44;;;1.96;100.00
3668;BME280;24099;47.102;15.440;2023-01-09T00:50:57;96148.88;;;1.96;100.00
3668;BME280;24099;47.102;15.440;2023-01-09T00:53:31;96144.97;;;2.00;100.00
3668;BME280;24099;47.102;15.440;2023-01-09T00:56:03;96142.66;;;1.89;100.00
3668;BME280;24099;47.102;15.440;2023-01-09T00:58:41;96133.97;;;1.98;100.00
3668;BME280;24099;47.102;15.440;2023-01-09T01:01:09;96121.00;;;1.98;100.00
3668;BME280;24099;47.102;15.440;2023-01-09T01:03:37;96134.34;;;2.12;100.00
3668;BME280;24099;47.102;15.440;2023-01-09T01:06:05;96136.56;;;1.98;100.00
3668;BME280;24099;47.102;15.440;2023-01-09T01:08:50;96131.38;;;1.98;100.00
3668;BME280;24099;47.102;15.440;2023-01-09T01:11:19;96132.41;;;2.14;100.00
3668;BME280;24099;47.102;15.440;2023-01-09T01:13:50;96122.28;;;2.02;100.00
3668;BME280;24099;47.102;15.440;2023-01-09T01:16:17;96127.00;;;1.99;100.00
3668;BME280;24099;47.102;15.440;2023-01-09T01:18:45;96124.56;;;1.97;100.00
3668;BME280;24099;47.102;15.440;2023-01-09T01:21:13;96116.94;;;1.96;100.00
3668;BME280;24099;47.102;15.440;2023-01-09T01:23:41;96106.88;;;2.01;100.00
3668;BME280;24099;47.102;15.440;2023-01-09T01:26:12;96099.28;;;1.99;100.00
3668;BME280;24099;47.102;15.440;2023-01-09T01:28:42;96094.66;;;1.85;100.00
3668;BME280;24099;47.102;15.440;2023-01-09T01:31:16;96091.66;;;1.98;100.00
3668;BME280;24099;47.102;15.440;2023-01-09T01:33:44;96087.91;;;2.00;100.00
3668;BME280;24099;47.102;15.440;2023-01-09T01:36:12;96084.69;;;1.98;100.00
3668;BME280;24099;47.102;15.440;2023-01-09T01:38:43;96091.50;;;1.99;100.00
3668;BME280;24099;47.102;15.440;2023-01-09T01:41:12;96085.78;;;1.96;100.00
3668;BME280;24099;47.102;15.440;2023-01-09T01:43:52;96081.75;;;2.01;100.00
3668;BME280;24099;47.102;15.440;2023-01-09T01:46:21;96080.25;;;1.91;100.00
3668;BME280;24099;47.102;15.440;2023-01-09T01:48:52;96074.19;;;1.82;100.00
3668;BME280;24099;47.102;15.440;2023-01-09T01:51:22;96074.75;;;1.94;100.00
3668;BME280;24099;47.102;15.440;2023-01-09T01:53:53;96070.75;;;1.99;100.00
3668;BME280;24099;47.102;15.440;2023-01-09T01:56:27;96061.38;;;1.81;100.00
3668;BME280;24099;47.102;15.440;2023-01-09T01:59:04;96064.34;;;1.86;100.00
3668;BME280;24099;47.102;15.440;2023-01-09T02:01:35;96068.03;;;1.83;100.00
3668;BME280;24099;47.102;15.440;2023-01-09T02:04:06;96068.41;;;1.88;100.00
3668;BME280;24099;47.102;15.440;2023-01-09T02:06:35;96069.59;;;2.02;100.00
3668;BME280;24099;47.102;15.440;2023-01-09T02:09:05;96076.44;;;2.11;100.00
3668;BME280;24099;47.102;15.440;2023-01-09T02:11:33;96071.53;;;2.00;100.00
3668;BME280;24099;47.102;15.440;2023-01-09T02:14:02;96060.16;;;1.93;100.00
3668;BME280;24099;47.102;15.440;2023-01-09T02:16:39;96050.28;;;1.96;100.00
3668;BME280;24099;47.102;15.440;2023-01-09T02:19:32;96059.03;;;1.95;100.00
3668;BME280;24099;47.102;15.440;2023-01-09T02:22:13;96056.03;;;2.16;100.00
3668;BME280;24099;47.102;15.440;2023-01-09T02:25:22;96047.53;;;1.98;100.00
3668;BME280;24099;47.102;15.440;2023-01-09T02:28:17;96049.16;;;1.99;100.00
3668;BME280;24099;47.102;15.440;2023-01-09T02:30:50;96042.50;;;1.96;100.00
3668;BME280;24099;47.102;15.440;2023-01-09T02:33:37;96050.59;;;2.01;100.00
3668;BME280;24099;47.102;15.440;2023-01-09T02:36:15;96042.81;;;1.93;100.00
3668;BME280;24099;47.102;15.440;2023-01-09T02:38:53;96042.50;;;1.96;100.00
3668;BME280;24099;47.102;15.440;2023-01-09T02:41:31;96035.53;;;1.97;100.00
3668;BME280;24099;47.102;15.440;2023-01-09T02:44:15;96039.09;;;1.96;100.00
3668;BME280;24099;47.102;15.440;2023-01-09T02:46:44;96032.28;;;2.03;100.00
3668;BME280;24099;47.102;15.440;2023-01-09T02:49:13;96032.31;;;2.11;100.00
3668;BME280;24099;47.102;15.440;2023-01-09T02:51:50;96034.78;;;2.13;100.00
3668;BME280;24099;47.102;15.440;2023-01-09T02:54:27;96021.63;;;2.22;100.00
3668;BME280;24099;47.102;15.440;2023-01-09T02:57:10;96031.06;;;2.15;100.00
3668;BME280;24099;47.102;15.440;2023-01-09T02:59:47;96023.56;;;2.20;100.00
3668;BME280;24099;47.102;15.440;2023-01-09T03:02:33;96020.84;;;2.30;100.00
3668;BME280;24099;47.102;15.440;2023-01-09T03:05:10;96018.41;;;2.28;100.00
3668;BME280;24099;47.102;15.440;2023-01-09T03:07:44;96012.41;;;2.20;100.00
3668;BME280;24099;47.102;15.440;2023-01-09T03:10:15;96011.41;;;2.21;100.00
3668;BME280;24099;47.102;15.440;2023-01-09T03:12:47;96002.34;;;2.25;100.00
3668;BME280;24099;47.102;15.440;2023-01-09T03:15:18;96009.16;;;2.26;100.00
3668;BME280;24099;47.102;15.440;2023-01-09T03:17:50;95996.66;;;2.21;100.00
3668;BME280;24099;47.102;15.440;2023-01-09T03:20:21;95995.69;;;2.22;100.00
3668;BME280;24099;47.102;15.440;2023-01-09T03:22:54;95999.13;;;2.31;100.00
3668;BME280;24099;47.102;15.440;2023-01-09T03:25:26;96003.53;;;2.38;100.00
3668;BME280;24099;47.102;15.440;2023-01-09T03:27:56;95993.63;;;2.34;100.00
3668;BME280;24099;47.102;15.440;2023-01-09T03:30:25;95990.84;;;2.27;100.00
3668;BME280;24099;47.102;15.440;2023-01-09T03:32:55;95997.66;;;2.28;100.00
3668;BME280;24099;47.102;15.440;2023-01-09T03:35:24;95999.13;;;2.31;100.00
3668;BME280;24099;47.102;15.440;2023-01-09T03:37:52;96000.88;;;2.14;100.00
3668;BME280;24099;47.102;15.440;2023-01-09T03:40:21;95997.34;;;2.48;100.00
3668;BME280;24099;47.102;15.440;2023-01-09T03:42:49;96004.78;;;2.26;100.00
3668;BME280;24099;47.102;15.440;2023-01-09T03:45:17;96001.53;;;2.24;100.00
3668;BME280;24099;47.102;15.440;2023-01-09T03:47:46;95999.09;;;2.23;100.00
3668;BME280;24099;47.102;15.440;2023-01-09T03:50:15;95996.22;;;2.50;100.00
3668;BME280;24099;47.102;15.440;2023-01-09T03:52:43;95997.16;;;2.25;100.00
3668;BME280;24099;47.102;15.440;2023-01-09T03:55:10;95981.91;;;2.22;100.00
3668;BME280;24099;47.102;15.440;2023-01-09T03:57:38;95977.19;;;2.25;100.00
3668;BME280;24099;47.102;15.440;2023-01-09T04:00:07;95978.00;;;2.26;100.00
3668;BME280;24099;47.102;15.440;2023-01-09T04:02:41;95967.66;;;2.50;100.00
3668;BME280;24099;47.102;15.440;2023-01-09T04:05:09;95963.28;;;2.34;100.00
3668;BME280;24099;47.102;15.440;2023-01-09T04:07:39;95956.78;;;2.38;100.00
3668;BME280;24099;47.102;15.440;2023-01-09T04:10:07;95964.59;;;2.38;100.00
3668;BME280;24099;47.102;15.440;2023-01-09T04:12:35;95959.88;;;2.34;100.00
3668;BME280;24099;47.102;15.440;2023-01-09T04:15:04;95969.78;;;2.38;100.00
3668;BME280;24099;47.102;15.440;2023-01-09T04:17:32;95970.41;;;2.40;100.00
3668;BME280;24099;47.102;15.440;2023-01-09T04:20:00;95962.81;;;2.39;100.00
3668;BME280;24099;47.102;15.440;2023-01-09T04:22:28;95972.69;;;2.43;100.00
3668;BME280;24099;47.102;15.440;2023-01-09T04:25:01;95970.91;;;2.44;100.00
3668;BME280;24099;47.102;15.440;2023-01-09T04:27:29;95973.81;;;2.49;100.00
3668;BME280;24099;47.102;15.440;2023-01-09T04:30:07;95974.47;;;2.67;100.00
3668;BME280;24099;47.102;15.440;2023-01-09T04:32:37;95970.44;;;2.57;100.00
3668;BME280;24099;47.102;15.440;2023-01-09T04:35:12;95970.91;;;2.52;100.00
3668;BME280;24099;47.102;15.440;2023-01-09T04:37:40;95971.72;;;2.61;100.00
3668;BME280;24099;47.102;15.440;2023-01-09T04:40:10;95963.28;;;2.59;100.00
3668;BME280;24099;47.102;15.440;2023-01-09T04:42:40;95969.31;;;2.59;100.00
3668;BME280;24099;47.102;15.440;2023-01-09T04:45:10;95974.31;;;2.53;100.00
3668;BME280;24099;47.102;15.440;2023-01-09T04:47:39;95980.31;;;2.53;100.00
3668;BME280;24099;47.102;15.440;2023-01-09T04:50:08;95973.19;;;2.55;100.00
3668;BME280;24099;47.102;15.440;2023-01-09T04:52:45;95984.69;;;2.61;100.00
3668;BME280;24099;47.102;15.440;2023-01-09T04:55:14;95980.16;;;2.55;100.00
3668;BME280;24099;47.102;15.440;2023-01-09T04:57:42;95975.78;;;2.55;100.00
3668;BME280;24099;47.102;15.440;2023-01-09T05:00:10;95981.97;;;2.54;100.00
3668;BME280;24099;47.102;15.440;2023-01-09T05:02:39;95976.09;;;2.60;100.00
3668;BME280;24099;47.102;15.440;2023-01-09T05:05:08;95972.72;;;2.60;100.00
3668;BME280;24099;47.102;15.440;2023-01-09T05:07:38;95985.53;;;2.69;100.00
3668;BME280;24099;47.102;15.440;2023-01-09T05:10:10;95975.94;;;2.62;100.00
3668;BME280;24099;47.102;15.440;2023-01-09T05:12:39;95979.34;;;2.62;100.00
3668;BME280;24099;47.102;15.440;2023-01-09T05:15:08;95974.47;;;2.51;100.00
3668;BME280;24099;47.102;15.440;2023-01-09T05:17:36;95968.66;;;2.57;100.00
3668;BME280;24099;47.102;15.440;2023-01-09T05:20:05;95965.72;;;2.52;100.00
3668;BME280;24099;47.102;15.440;2023-01-09T05:22:33;95962.78;;;2.47;100.00
3668;BME280;24099;47.102;15.440;2023-01-09T05:25:01;95958.56;;;2.46;100.00
3668;BME280;24099;47.102;15.440;2023-01-09T05:27:28;95955.50;;;2.51;100.00
3668;BME280;24099;47.102;15.440;2023-01-09T05:29:58;95956.44;;;2.82;100.00
3668;BME280;24099;47.102;15.440;2023-01-09T05:32:25;95943.50;;;2.58;100.00
3668;BME280;24099;47.102;15.440;2023-01-09T05:34:53;95947.38;;;2.46;100.00
3668;BME280;24099;47.102;15.440;2023-01-09T05:37:21;95947.22;;;2.55;100.00
3668;BME280;24099;47.102;15.440;2023-01-09T05:39:49;95961.66;;;2.58;100.00
3668;BME280;24099;47.102;15.440;2023-01-09T05:42:17;95960.66;;;2.83;100.00
3668;BME280;24099;47.102;15.440;2023-01-09T05:44:45;95959.88;;;2.74;100.00
3668;BME280;24099;47.102;15.440;2023-01-09T05:47:14;95961.31;;;2.45;100.00
3668;BME280;24099;47.102;15.440;2023-01-09T05:49:42;95956.59;;;2.24;100.00
3668;BME280;24099;47.102;15.440;2023-01-09T05:52:09;95954.81;;;2.24;100.00
3668;BME280;24099;47.102;15.440;2023-01-09T05:54:37;95949.66;;;2.49;100.00
3668;BME280;24099;47.102;15.440;2023-01-09T05:57:05;95954.97;;;2.23;100.00
3668;BME280;24099;47.102;15.440;2023-01-09T05:59:35;95950.72;;;2.05;100.00
3668;BME280;24099;47.102;15.440;2023-01-09T06:02:03;95941.16;;;2.06;100.00
3668;BME280;24099;47.102;15.440;2023-01-09T06:04:32;95936.94;;;2.05;100.00
3668;BME280;24099;47.102;15.440;2023-01-09T06:06:59;95934.81;;;2.00;100.00
3668;BME280;24099;47.102;15.440;2023-01-09T06:09:27;95930.94;;;1.96;100.00
3668;BME280;24099;47.102;15.440;2023-01-09T06:11:56;95928.34;;;1.96;100.00
3668;BME280;24099;47.102;15.440;2023-01-09T06:14:23;95935.00;;;1.99;100.00
3668;BME280;24099;47.102;15.440;2023-01-09T06:16:51;95939.56;;;2.21;100.00
3668;BME280;24099;47.102;15.440;2023-01-09T06:19:19;95938.88;;;1.95;100.00
3668;BME280;24099;47.102;15.440;2023-01-09T06:21:48;95943.41;;;2.01;100.00
3668;BME280;24099;47.102;15.440;2023-01-09T06:24:16;95941.34;;;2.13;100.00
3668;BME280;24099;47.102;15.440;2023-01-09T06:26:44;95935.81;;;2.07;100.00
3668;BME280;24099;47.102;15.440;2023-01-09T06:29:11;95950.91;;;2.12;100.00
3668;BME280;24099;47.102;15.440;2023-01-09T06:31:39;95964.81;;;2.03;100.00
3668;BME280;24099;47.102;15.440;2023-01-09T06:34:07;95958.13;;;1.84;100.00
3668;BME280;24099;47.102;15.440;2023-01-09T06:36:35;95953.47;;;2.04;100.00
3668;BME280;24099;47.102;15.440;2023-01-09T06:39:04;95954.47;;;2.11;100.00
3668;BME280;24099;47.102;15.440;2023-01-09T06:41:32;95956.56;;;2.07;100.00
3668;BME280;24099;47.102;15.440;2023-01-09T06:43:59;95957.31;;;1.84;100.00
3668;BME280;24099;47.102;15.440;2023-01-09T06:46:27;95967.75;;;2.08;100.00
3668;BME280;24099;47.102;15.440;2023-01-09T06:48:54;95975.75;;;2.31;100.00
3668;BME280;24099;47.102;15.440;2023-01-09T06:51:22;95976.47;;;1.91;100.00
3668;BME280;24099;47.102;15.440;2023-01-09T06:53:50;95977.13;;;1.93;100.00
3668;BME280;24099;47.102;15.440;2023-01-09T06:56:19;95978.94;;;2.00;100.00
3668;BME280;24099;47.102;15.440;2023-01-09T06:58:47;95978.97;;;2.08;100.00
3668;BME280;24099;47.102;15.440;2023-01-09T07:01:15;95975.25;;;2.11;100.00
3668;BME280;24099;47.102;15.440;2023-01-09T07:03:43;95970.66;;;1.97;100.00
3668;BME280;24099;47.102;15.440;2023-01-09T07:06:10;95961.75;;;2.07;100.00
3668;BME280;24099;47.102;15.440;2023-01-09T07:08:38;95956.25;;;2.11;100.00
3668;BME280;24099;47.102;15.440;2023-01-09T07:11:06;95957.84;;;2.03;100.00
3668;BME280;24099;47.102;15.440;2023-01-09T07:13:35;95957.91;;;2.20;100.00
3668;BME280;24099;47.102;15.440;2023-01-09T07:16:04;95962.75;;;2.15;100.00
3668;BME280;24099;47.102;15.440;2023-01-09T07:18:31;95965.03;;;2.18;100.00
3668;BME280;24099;47.102;15.440;2023-01-09T07:20:59;95959.19;;;2.16;100.00
3668;BME280;24099;47.102;15.440;2023-01-09T07:23:27;95970.53;;;2.15;100.00
3668;BME280;24099;47.102;15.440;2023-01-09T07:25:54;95973.94;;;2.07;100.00
3668;BME280;24099;47.102;15.440;2023-01-09T07:28:24;95980.63;;;2.18;100.00
3668;BME280;24099;47.102;15.440;2023-01-09T07:30:53;95983.72;;;2.29;100.00
3668;BME280;24099;47.102;15.440;2023-01-09T07:33:21;95987.78;;;2.32;100.00
3668;BME280;24099;47.102;15.440;2023-01-09T07:35:50;95982.56;;;2.32;100.00
3668;BME280;24099;47.102;15.440;2023-01-09T07:38:18;95979.81;;;2.33;100.00
3668;BME280;24099;47.102;15.440;2023-01-09T07:40:45;95978.84;;;2.42;100.00
3668;BME280;24099;47.102;15.440;2023-01-09T07:43:13;95975.44;;;2.42;100.00
3668;BME280;24099;47.102;15.440;2023-01-09T07:45:41;95980.97;;;2.47;100.00
3668;BME280;24099;47.102;15.440;2023-01-09T07:48:10;95977.41;;;2.48;100.00
3668;BME280;24099;47.102;15.440;2023-01-09T07:50:38;95979.03;;;2.57;100.00
3668;BME280;24099;47.102;15.440;2023-01-09T07:53:05;95978.38;;;2.71;100.00
3668;BME280;24099;47.102;15.440;2023-01-09T07:55:33;95980.16;;;2.71;100.00
3668;BME280;24099;47.102;15.440;2023-01-09T07:58:07;95983.25;;;2.74;100.00
3668;BME280;24099;47.102;15.440;2023-01-09T08:00:35;95989.44;;;2.73;100.00
3668;BME280;24099;47.102;15.440;2023-01-09T08:03:03;95989.75;;;2.79;100.00
3668;BME280;24099;47.102;15.440;2023-01-09T08:05:32;95995.59;;;2.89;100.00
3668;BME280;24099;47.102;15.440;2023-01-09T08:08:00;95995.25;;;2.92;100.00
3668;BME280;24099;47.102;15.440;2023-01-09T08:10:29;95991.22;;;2.97;100.00
3668;BME280;24099;47.102;15.440;2023-01-09T08:12:57;95995.25;;;3.00;100.00
3668;BME280;24099;47.102;15.440;2023-01-09T08:15:25;95988.25;;;3.08;100.00
3668;BME280;24099;47.102;15.440;2023-01-09T08:17:52;95977.38;;;3.13;100.00
3668;BME280;24099;47.102;15.440;2023-01-09T08:20:20;95974.75;;;3.21;100.00
3668;BME280;24099;47.102;15.440;2023-01-09T08:22:49;95977.69;;;3.18;100.00
3668;BME280;24099;47.102;15.440;2023-01-09T08:25:18;95976.03;;;3.25;100.00
3668;BME280;24099;47.102;15.440;2023-01-09T08:27:46;95973.75;;;3.30;100.00
3668;BME280;24099;47.102;15.440;2023-01-09T08:30:15;95978.63;;;3.33;100.00
3668;BME280;24099;47.102;15.440;2023-01-09T08:32:42;95971.78;;;3.40;100.00
3668;BME280;24099;47.102;15.440;2023-01-09T08:35:10;95973.22;;;3.51;100.00
3668;BME280;24099;47.102;15.440;2023-01-09T08:37:38;95971.91;;;3.55;100.00
3668;BME280;24099;47.102;15.440;2023-01-09T08:40:08;95981.50;;;3.55;100.00
3668;BME280;24099;47.102;15.440;2023-01-09T08:42:36;95976.13;;;3.56;100.00
3668;BME280;24099;47.102;15.440;2023-01-09T08:45:21;95966.63;;;3.71;100.00
3668;BME280;24099;47.102;15.440;2023-01-09T08:48:07;95965.50;;;3.74;100.00
3668;BME280;24099;47.102;15.440;2023-01-09T08:50:34;95962.09;;;3.73;100.00
3668;BME280;24099;47.102;15.440;2023-01-09T08:53:02;95966.31;;;3.74;100.00
3668;BME280;24099;47.102;15.440;2023-01-09T08:55:31;95963.78;;;3.89;100.00
3668;BME280;24099;47.102;15.440;2023-01-09T08:57:59;95962.47;;;3.93;100.00
3668;BME280;24099;47.102;15.440;2023-01-09T09:00:26;95970.13;;;3.95;100.00
3668;BME280;24099;47.102;15.440;2023-01-09T09:02:56;95974.19;;;3.97;100.00
3668;BME280;24099;47.102;15.440;2023-01-09T09:05:25;95980.47;;;4.03;100.00
3668;BME280;24099;47.102;15.440;2023-01-09T09:07:54;95988.13;;;4.04;100.00
3668;BME280;24099;47.102;15.440;2023-01-09T09:10:24;95985.00;;;4.09;100.00
3668;BME280;24099;47.102;15.440;2023-01-09T09:12:55;95980.75;;;4.16;100.00
3668;BME280;24099;47.102;15.440;2023-01-09T09:15:24;95982.19;;;4.19;100.00
3668;BME280;24099;47.102;15.440;2023-01-09T09:17:54;95988.91;;;4.13;100.00
3668;BME280;24099;47.102;15.440;2023-01-09T09:20:23;95994.69;;;4.23;100.00
3668;BME280;24099;47.102;15.440;2023-01-09T09:22:51;95997.75;;;4.27;100.00
3668;BME280;24099;47.102;15.440;2023-01-09T09:25:19;96003.13;;;4.25;100.00
3668;BME280;24099;47.102;15.440;2023-01-09T09:27:47;96001.31;;;4.34;100.00
3668;BME280;24099;47.102;15.440;2023-01-09T09:30:18;95981.75;;;4.38;100.00
3668;BME280;24099;47.102;15.440;2023-01-09T09:32:46;95976.47;;;4.46;100.00
3668;BME280;24099;47.102;15.440;2023-01-09T09:35:15;95961.13;;;4.51;100.00
3668;BME280;24099;47.102;15.440;2023-01-09T09:37:52;95955.41;;;4.56;100.00
3668;BME280;24099;47.102;15.440;2023-01-09T09:40:31;95954.53;;;4.63;100.00
3668;BME280;24099;47.102;15.440;2023-01-09T09:43:23;95957.44;;;4.68;100.00
3668;BME280;24099;47.102;15.440;2023-01-09T09:46:17;95957.53;;;4.75;100.00
3668;BME280;24099;47.102;15.440;2023-01-09T09:48:53;95953.06;;;4.83;100.00
3668;BME280;24099;47.102;15.440;2023-01-09T09:51:53;95957.56;;;4.90;100.00
3668;BME280;24099;47.102;15.440;2023-01-09T09:54:26;95951.56;;;5.04;100.00
3668;BME280;24099;47.102;15.440;2023-01-09T09:56:59;95941.25;;;5.10;100.00
3668;BME280;24099;47.102;15.440;2023-01-09T09:59:31;95931.44;;;5.12;100.00
3668;BME280;24099;47.102;15.440;2023-01-09T10:02:08;95942.34;;;5.31;100.00
3668;BME280;24099;47.102;15.440;2023-01-09T10:04:40;95942.50;;;5.44;100.00
3668;BME280;24099;47.102;15.440;2023-01-09T10:07:16;95934.44;;;5.53;100.00
3668;BME280;24099;47.102;15.440;2023-01-09T10:09:48;95942.34;;;5.45;100.00
3668;BME280;24099;47.102;15.440;2023-01-09T10:12:27;95940.72;;;5.44;100.00
3668;BME280;24099;47.102;15.440;2023-01-09T10:14:57;95937.47;;;5.42;100.00
3668;BME280;24099;47.102;15.440;2023-01-09T10:17:42;95940.72;;;5.44;100.00
3668;BME280;24099;47.102;15.440;2023-01-09T10:20:45;95941.53;;;5.45;100.00
3668;BME280;24099;47.102;15.440;2023-01-09T10:23:45;95952.78;;;5.45;100.00
3668;BME280;24099;47.102;15.440;2023-01-09T10:26:23;95943.88;;;5.54;100.00
3668;BME280;24099;47.102;15.440;2023-01-09T10:29:12;95945.84;;;5.52;100.00
3668;BME280;24099;47.102;15.440;2023-01-09T10:31:52;95944.88;;;5.53;100.00
3668;BME280;24099;47.102;15.440;2023-01-09T10:34:38;95936.28;;;5.60;100.00
3668;BME280;24099;47.102;15.440;2023-01-09T10:37:11;95924.69;;;5.62;100.00
3668;BME280;24099;47.102;15.440;2023-01-09T10:39:45;95921.81;;;5.72;100.00
3668;BME280;24099;47.102;15.440;2023-01-09T10:42:19;95940.44;;;5.69;100.00
3668;BME280;24099;47.102;15.440;2023-01-09T10:44:53;95943.78;;;5.63;100.00
3668;BME280;24099;47.102;15.440;2023-01-09T10:47:24;95942.59;;;5.65;100.00
3668;BME280;24099;47.102;15.440;2023-01-09T10:49:56;95934.41;;;5.68;100.00
3668;BME280;24099;47.102;15.440;2023-01-09T10:52:32;95946.81;;;5.66;100.00
3668;BME280;24099;47.102;15.440;2023-01-09T10:55:04;95949.44;;;5.66;100.00
3668;BME280;24099;47.102;15.440;2023-01-09T10:57:42;95951.50;;;5.71;100.00
3668;BME280;24099;47.102;15.440;2023-01-09T11:00:16;95959.69;;;5.68;100.00
3668;BME280;24099;47.102;15.440;2023-01-09T11:02:45;95956.88;;;5.84;100.00
3668;BME280;24099;47.102;15.440;2023-01-09T11:05:18;95964.03;;;5.90;100.00
3668;BME280;24099;47.102;15.440;2023-01-09T11:07:50;95951.13;;;6.03;100.00
3668;BME280;24099;47.102;15.440;2023-01-09T11:10:19;95966.69;;;5.82;100.00
3668;BME280;24099;47.102;15.440;2023-01-09T11:12:47;95963.84;;;5.77;100.00
3668;BME280;24099;47.102;15.440;2023-01-09T11:15:24;95940.53;;;5.90;100.00
3668;BME280;24099;47.102;15.440;2023-01-09T11:20:42;95939.91;;;5.73;100.00
3668;BME280;24099;47.102;15.440;2023-01-09T11:23:27;95938.72;;;5.91;100.00
3668;BME280;24099;47.102;15.440;2023-01-09T11:25:57;95934.50;;;5.90;100.00
3668;BME280;24099;47.102;15.440;2023-01-09T11:28:25;95929.34;;;5.81;100.00
3668;BME280;24099;47.102;15.440;2023-01-09T11:30:55;95948.44;;;5.82;100.00
3668;BME280;24099;47.102;15.440;2023-01-09T11:33:26;95943.16;;;5.90;100.00
3668;BME280;24099;47.102;15.440;2023-01-09T11:36:00;95957.88;;;5.83;100.00
3668;BME280;24099;47.102;15.440;2023-01-09T11:38:30;95966.53;;;5.83;100.00
3668;BME280;24099;47.102;15.440;2023-01-09T11:41:00;95958.72;;;6.19;100.00
3668;BME280;24099;47.102;15.440;2023-01-09T11:43:32;95952.28;;;6.01;100.00
3668;BME280;24099;47.102;15.440;2023-01-09T11:46:05;95953.50;;;5.98;100.00
3668;BME280;24099;47.102;15.440;2023-01-09T11:48:38;95952.88;;;5.96;100.00
3668;BME280;24099;47.102;15.440;2023-01-09T11:51:18;95944.41;;;5.94;100.00
3668;BME280;24099;47.102;15.440;2023-01-09T11:53:59;95951.56;;;6.07;100.00
3668;BME280;24099;47.102;15.440;2023-01-09T11:56:29;95945.91;;;6.03;100.00
3668;BME280;24099;47.102;15.440;2023-01-09T11:58:58;95943.66;;;6.00;100.00
3668;BME280;24099;47.102;15.440;2023-01-09T12:02:20;95937.84;;;6.19;100.00
3668;BME280;24099;47.102;15.440;2023-01-09T12:04:53;95943.56;;;6.08;100.00
3668;BME280;24099;47.102;15.440;2023-01-09T12:10:44;95947.91;;;6.22;100.00
3668;BME280;24099;47.102;15.440;2023-01-09T12:13:24;95945.34;;;6.08;100.00
3668;BME280;24099;47.102;15.440;2023-01-09T12:16:03;95948.63;;;5.95;100.00
3668;BME280;24099;47.102;15.440;2023-01-09T12:18:44;95942.66;;;6.01;100.00
3668;BME280;24099;47.102;15.440;2023-01-09T12:21:27;95935.31;;;5.90;100.00
3668;BME280;24099;47.102;15.440;2023-01-09T12:24:24;95943.78;;;5.92;100.00
3668;BME280;24099;47.102;15.440;2023-01-09T12:27:06;95935.94;;;6.28;100.00
3668;BME280;24099;47.102;15.440;2023-01-09T12:29:49;95926.16;;;6.15;100.00
3668;BME280;24099;47.102;15.440;2023-01-09T12:32:30;95930.22;;;6.03;100.00
3668;BME280;24099;47.102;15.440;2023-01-09T12:35:11;95932.47;;;6.06;100.00
3668;BME280;24099;47.102;15.440;2023-01-09T12:37:57;95916.34;;;6.17;100.00
3668;BME280;24099;47.102;15.440;2023-01-09T12:40:54;95914.56;;;6.03;100.00
3668;BME280;24099;47.102;15.440;2023-01-09T12:43:34;95921.03;;;6.07;100.00
3668;BME280;24099;47.102;15.440;2023-01-09T12:46:14;95919.53;;;6.19;100.00
3668;BME280;24099;47.102;15.440;2023-01-09T12:48:45;95919.94;;;6.16;100.00
3668;BME280;24099;47.102;15.440;2023-01-09T12:51:22;95923.78;;;6.20;100.00
3668;BME280;24099;47.102;15.440;2023-01-09T12:53:56;95914.94;;;6.21;100.00
3668;BME280;24099;47.102;15.440;2023-01-09T12:56:31;95921.25;;;6.27;100.00
3668;BME280;24099;47.102;15.440;2023-01-09T12:59:04;95922.25;;;6.26;100.00
3668;BME280;24099;47.102;15.440;2023-01-09T13:01:37;95929.44;;;6.24;100.00
3668;BME280;24099;47.102;15.440;2023-01-09T13:04:11;95933.31;;;6.28;100.00
3668;BME280;24099;47.102;15.440;2023-01-09T13:06:43;95942.59;;;6.31;100.00
3668;BME280;24099;47.102;15.440;2023-01-09T13:09:21;95939.97;;;6.31;100.00
3668;BME280;24099;47.102;15.440;2023-01-09T13:12:00;95937.50;;;6.44;100.00
3668;BME280;24099;47.102;15.440;2023-01-09T13:14:43;95951.72;;;6.41;100.00
3668;BME280;24099;47.102;15.440;2023-01-09T13:17:17;95958.34;;;6.37;100.00
3668;BME280;24099;47.102;15.440;2023-01-09T13:19:46;95962.31;;;6.33;100.00
3668;BME280;24099;47.102;15.440;2023-01-09T13:22:14;95963.41;;;6.24;100.00
3668;BME280;24099;47.102;15.440;2023-01-09T13:25:04;95966.28;;;6.29;100.00
3668;BME280;24099;47.102;15.440;2023-01-09T13:27:37;95966.84;;;6.25;100.00
3668;BME280;24099;47.102;15.440;2023-01-09T13:30:18;95971.44;;;6.22;100.00
3668;BME280;24099;47.102;15.440;2023-01-09T13:32:56;95982.22;;;6.34;100.00